sensor_id;sensor_type;location;lat;lon;timestamp;pressure;altitude;pressure_sealevel;temperature;humidity
43217;BME280;60511;42.686;23.300;2022-09-09T00:01:23;94956.44;;;24.81;39.18
43217;BME280;60511;42.686;23.300;2022-09-09T00:03:31;94954.91;;;24.99;38.82
43217;BME280;60511;42.686;23.300;2022-09-09T00:05:46;94955.41;;;25.05;38.85
43217;BME280;60511;42.686;23.300;2022-09-09T00:07:51;94950.09;;;24.93;38.91
43217;BME280;60511;42.686;23.300;2022-09-09T00:12:00;94947.13;;;24.98;38.98
43217;BME280;60511;42.686;23.300;2022-09-09T00:14:03;94942.56;;;25.02;38.88
43217;BME280;60511;42.686;23.300;2022-09-09T00:16:15;94950.03;;;24.89;39.04
43217;BME280;60511;42.686;23.300;2022-09-09T00:20:32;94947.91;;;24.79;39.06
43217;BME280;60511;42.686;23.300;2022-09-09T00:22:35;94944.25;;;24.91;39.09
43217;BME280;60511;42.686;23.300;2022-09-09T00:24:38;94935.22;;;24.83;39.31
43217;BME280;60511;42.686;23.300;2022-09-09T00:26:45;94926.03;;;24.88;39.07
43217;BME280;60511;42.686;23.300;2022-09-09T00:28:50;94929.00;;;24.82;39.37
43217;BME280;60511;42.686;23.300;2022-09-09T00:30:52;94918.69;;;24.88;39.24
43217;BME280;60511;42.686;23.300;2022-09-09T00:32:55;94922.28;;;25.12;38.82
43217;BME280;60511;42.686;23.300;2022-09-09T00:35:00;94919.34;;;25.01;38.88
43217;BME280;60511;42.686;23.300;2022-09-09T00:37:01;94921.25;;;25.00;39.35
43217;BME280;60511;42.686;23.300;2022-09-09T00:39:03;94906.66;;;25.05;38.92
43217;BME280;60511;42.686;23.300;2022-09-09T00:51:35;94922.16;;;25.24;39.16
43217;BME280;60511;42.686;23.300;2022-09-09T00:57:59;94914.38;;;25.22;39.30
43217;BME280;60511;42.686;23.300;2022-09-09T01:01:59;94912.56;;;25.11;39.47
43217;BME280;60511;42.686;23.300;2022-09-09T01:04:01;94909.31;;;25.01;39.88
43217;BME280;60511;42.686;23.300;2022-09-09T01:08:22;94915.13;;;24.84;39.93
43217;BME280;60511;42.686;23.300;2022-09-09T01:12:47;94910.25;;;24.74;40.07
43217;BME280;60511;42.686;23.300;2022-09-09T01:14:49;94918.38;;;24.74;40.02
43217;BME280;60511;42.686;23.300;2022-09-09T01:16:54;94922.78;;;24.62;40.49
43217;BME280;60511;42.686;23.300;2022-09-09T01:18:56;94920.28;;;24.38;41.00
43217;BME280;60511;42.686;23.300;2022-09-09T01:25:21;94911.22;;;24.30;41.09
43217;BME280;60511;42.686;23.300;2022-09-09T01:27:25;94911.28;;;24.50;40.80
43217;BME280;60511;42.686;23.300;2022-09-09T01:29:26;94913.38;;;24.40;41.04
43217;BME280;60511;42.686;23.300;2022-09-09T01:31:27;94913.00;;;24.58;40.62
43217;BME280;60511;42.686;23.300;2022-09-09T01:33:29;94916.94;;;24.60;40.58
43217;BME280;60511;42.686;23.300;2022-09-09T01:37:50;94920.03;;;22.95;44.86
43217;BME280;60511;42.686;23.300;2022-09-09T01:39:50;94931.88;;;22.65;45.82
43217;BME280;60511;42.686;23.300;2022-09-09T01:41:50;94927.84;;;22.47;45.89
43217;BME280;60511;42.686;23.300;2022-09-09T01:43:52;94931.28;;;23.25;44.10
43217;BME280;60511;42.686;23.300;2022-09-09T01:45:54;94930.94;;;23.55;43.97
43217;BME280;60511;42.686;23.300;2022-09-09T01:47:55;94928.06;;;23.19;44.58
43217;BME280;60511;42.686;23.300;2022-09-09T01:49:56;94928.34;;;23.02;44.97
43217;BME280;60511;42.686;23.300;2022-09-09T01:51:57;94933.44;;;22.79;45.43
43217;BME280;60511;42.686;23.300;2022-09-09T01:53:57;94945.16;;;22.58;46.29
43217;BME280;60511;42.686;23.300;2022-09-09T01:58:42;94937.75;;;22.55;46.03
43217;BME280;60511;42.686;23.300;2022-09-09T02:00:33;94939.78;;;22.46;46.54
43217;BME280;60511;42.686;23.300;2022-09-09T02:06:40;94926.25;;;23.23;44.26
43217;BME280;60511;42.686;23.300;2022-09-09T02:10:50;94934.69;;;23.50;43.51
43217;BME280;60511;42.686;23.300;2022-09-09T02:12:55;94925.56;;;23.71;43.11
43217;BME280;60511;42.686;23.300;2022-09-09T02:15:07;94910.91;;;23.72;42.99
43217;BME280;60511;42.686;23.300;2022-09-09T02:17:11;94907.78;;;23.70;42.87
43217;BME280;60511;42.686;23.300;2022-09-09T02:21:14;94911.06;;;24.07;41.85
43217;BME280;60511;42.686;23.300;2022-09-09T02:23:15;94915.22;;;24.20;41.67
43217;BME280;60511;42.686;23.300;2022-09-09T02:25:17;94906.88;;;24.10;41.70
43217;BME280;60511;42.686;23.300;2022-09-09T02:27:19;94914.00;;;23.86;42.45
43217;BME280;60511;42.686;23.300;2022-09-09T02:29:25;94922.06;;;23.26;43.86
43217;BME280;60511;42.686;23.300;2022-09-09T02:31:26;94926.97;;;23.08;44.34
43217;BME280;60511;42.686;23.300;2022-09-09T02:33:28;94919.22;;;23.35;43.83
43217;BME280;60511;42.686;23.300;2022-09-09T02:35:30;94922.22;;;23.17;43.96
43217;BME280;60511;42.686;23.300;2022-09-09T02:37:34;94928.91;;;23.52;43.32
43217;BME280;60511;42.686;23.300;2022-09-09T02:39:36;94933.25;;;23.40;43.37
43217;BME280;60511;42.686;23.300;2022-09-09T02:41:37;94932.25;;;22.64;45.11
43217;BME280;60511;42.686;23.300;2022-09-09T02:43:39;94939.50;;;22.02;46.35
43217;BME280;60511;42.686;23.300;2022-09-09T02:45:44;94941.56;;;21.59;47.67
43217;BME280;60511;42.686;23.300;2022-09-09T02:47:54;94943.50;;;21.71;47.19
43217;BME280;60511;42.686;23.300;2022-09-09T02:52:04;94942.22;;;22.14;46.26
43217;BME280;60511;42.686;23.300;2022-09-09T02:56:39;94930.13;;;22.98;44.08
43217;BME280;60511;42.686;23.300;2022-09-09T02:58:40;94929.63;;;23.20;43.86
43217;BME280;60511;42.686;23.300;2022-09-09T03:00:41;94932.63;;;23.31;43.53
43217;BME280;60511;42.686;23.300;2022-09-09T03:02:41;94935.53;;;23.38;43.19
43217;BME280;60511;42.686;23.300;2022-09-09T03:04:42;94934.47;;;23.43;43.20
43217;BME280;60511;42.686;23.300;2022-09-09T03:06:44;94942.63;;;23.59;42.93
43217;BME280;60511;42.686;23.300;2022-09-09T03:08:44;94933.81;;;23.62;42.47
43217;BME280;60511;42.686;23.300;2022-09-09T03:10:44;94935.03;;;23.49;42.61
43217;BME280;60511;42.686;23.300;2022-09-09T03:12:45;94932.38;;;23.36;43.17
43217;BME280;60511;42.686;23.300;2022-09-09T03:14:45;94936.59;;;23.50;42.52
43217;BME280;60511;42.686;23.300;2022-09-09T03:16:47;94932.59;;;23.15;42.84
43217;BME280;60511;42.686;23.300;2022-09-09T03:18:47;94936.53;;;22.40;44.83
43217;BME280;60511;42.686;23.300;2022-09-09T03:20:47;94938.03;;;23.03;43.47
43217;BME280;60511;42.686;23.300;2022-09-09T03:22:48;94929.25;;;23.34;42.85
43217;BME280;60511;42.686;23.300;2022-09-09T03:24:48;94925.72;;;23.62;41.88
43217;BME280;60511;42.686;23.300;2022-09-09T03:26:49;94926.84;;;23.61;42.05
43217;BME280;60511;42.686;23.300;2022-09-09T03:28:50;94928.41;;;23.46;42.58
43217;BME280;60511;42.686;23.300;2022-09-09T03:30:51;94936.09;;;23.60;41.94
43217;BME280;60511;42.686;23.300;2022-09-09T03:32:51;94925.44;;;23.51;41.85
43217;BME280;60511;42.686;23.300;2022-09-09T03:34:52;94926.31;;;23.55;41.79
43217;BME280;60511;42.686;23.300;2022-09-09T03:36:52;94931.22;;;23.65;42.00
43217;BME280;60511;42.686;23.300;2022-09-09T03:38:53;94933.56;;;23.67;42.00
43217;BME280;60511;42.686;23.300;2022-09-09T03:40:55;94929.94;;;23.75;41.65
43217;BME280;60511;42.686;23.300;2022-09-09T03:42:55;94932.53;;;23.72;41.68
43217;BME280;60511;42.686;23.300;2022-09-09T03:44:56;94927.00;;;23.80;41.67
43217;BME280;60511;42.686;23.300;2022-09-09T03:46:57;94929.50;;;23.73;42.14
43217;BME280;60511;42.686;23.300;2022-09-09T03:49:00;94923.06;;;23.78;41.66
43217;BME280;60511;42.686;23.300;2022-09-09T03:51:01;94931.22;;;23.65;41.85
43217;BME280;60511;42.686;23.300;2022-09-09T03:53:03;94933.56;;;23.67;41.91
43217;BME280;60511;42.686;23.300;2022-09-09T03:55:03;94941.25;;;23.65;41.91
43217;BME280;60511;42.686;23.300;2022-09-09T03:57:04;94937.22;;;23.59;42.34
43217;BME280;60511;42.686;23.300;2022-09-09T03:59:04;94937.38;;;23.50;42.14
43217;BME280;60511;42.686;23.300;2022-09-09T04:01:06;94936.59;;;23.50;42.36
43217;BME280;60511;42.686;23.300;2022-09-09T04:03:09;94939.16;;;23.58;42.13
43217;BME280;60511;42.686;23.300;2022-09-09T04:05:09;94933.22;;;23.53;42.02
43217;BME280;60511;42.686;23.300;2022-09-09T04:07:09;94930.84;;;23.51;42.23
43217;BME280;60511;42.686;23.300;2022-09-09T04:09:11;94940.59;;;23.56;42.18
43217;BME280;60511;42.686;23.300;2022-09-09T04:11:12;94938.94;;;23.51;42.28
43217;BME280;60511;42.686;23.300;2022-09-09T04:13:12;94936.53;;;23.62;42.32
43217;BME280;60511;42.686;23.300;2022-09-09T04:15:14;94939.09;;;23.71;41.54
43217;BME280;60511;42.686;23.300;2022-09-09T04:17:14;94934.56;;;23.75;41.87
43217;BME280;60511;42.686;23.300;2022-09-09T04:19:15;94932.38;;;23.64;41.86
43217;BME280;60511;42.686;23.300;2022-09-09T04:21:16;94936.19;;;23.63;41.88
43217;BME280;60511;42.686;23.300;2022-09-09T04:23:17;94936.56;;;23.78;41.65
43217;BME280;60511;42.686;23.300;2022-09-09T04:25:19;94931.03;;;23.86;41.48
43217;BME280;60511;42.686;23.300;2022-09-09T04:27:19;94937.47;;;23.82;41.48
43217;BME280;60511;42.686;23.300;2022-09-09T04:29:19;94937.66;;;23.89;41.52
43217;BME280;60511;42.686;23.300;2022-09-09T04:31:21;94939.06;;;23.99;41.57
43217;BME280;60511;42.686;23.300;2022-09-09T04:33:23;94943.06;;;23.89;41.48
43217;BME280;60511;42.686;23.300;2022-09-09T04:35:26;94938.94;;;23.79;41.93
43217;BME280;60511;42.686;23.300;2022-09-09T04:37:27;94946.72;;;23.81;41.59
43217;BME280;60511;42.686;23.300;2022-09-09T04:39:27;94942.47;;;23.39;42.57
43217;BME280;60511;42.686;23.300;2022-09-09T04:41:27;94953.66;;;23.38;42.55
43217;BME280;60511;42.686;23.300;2022-09-09T04:43:28;94951.28;;;23.36;42.74
43217;BME280;60511;42.686;23.300;2022-09-09T04:45:30;94947.31;;;23.46;42.13
43217;BME280;60511;42.686;23.300;2022-09-09T04:47:31;94937.91;;;23.56;42.17
43217;BME280;60511;42.686;23.300;2022-09-09T04:49:31;94931.13;;;23.62;42.08
43217;BME280;60511;42.686;23.300;2022-09-09T04:51:31;94930.19;;;23.70;42.06
43217;BME280;60511;42.686;23.300;2022-09-09T04:53:32;94936.91;;;23.76;41.55
43217;BME280;60511;42.686;23.300;2022-09-09T04:55:34;94930.06;;;23.79;41.59
43217;BME280;60511;42.686;23.300;2022-09-09T04:57:37;94926.06;;;23.89;41.26
43217;BME280;60511;42.686;23.300;2022-09-09T04:59:37;94927.09;;;24.00;41.31
43217;BME280;60511;42.686;23.300;2022-09-09T05:01:39;94925.34;;;24.08;40.97
43217;BME280;60511;42.686;23.300;2022-09-09T05:03:40;94934.00;;;24.13;41.25
43217;BME280;60511;42.686;23.300;2022-09-09T05:05:41;94929.44;;;24.33;40.71
43217;BME280;60511;42.686;23.300;2022-09-09T05:07:41;94915.31;;;24.24;40.81
43217;BME280;60511;42.686;23.300;2022-09-09T05:09:41;94912.50;;;24.20;41.03
43217;BME280;60511;42.686;23.300;2022-09-09T05:11:42;94913.72;;;24.23;40.99
43217;BME280;60511;42.686;23.300;2022-09-09T05:13:44;94915.41;;;24.27;40.92
43217;BME280;60511;42.686;23.300;2022-09-09T05:15:51;94929.19;;;24.54;40.67
43217;BME280;60511;42.686;23.300;2022-09-09T05:17:51;94940.00;;;24.38;40.67
43217;BME280;60511;42.686;23.300;2022-09-09T05:19:53;94927.25;;;24.39;40.66
43217;BME280;60511;42.686;23.300;2022-09-09T05:21:53;94922.19;;;24.37;40.38
43217;BME280;60511;42.686;23.300;2022-09-09T05:23:53;94915.28;;;24.40;40.45
43217;BME280;60511;42.686;23.300;2022-09-09T05:25:56;94913.28;;;24.37;40.36
43217;BME280;60511;42.686;23.300;2022-09-09T05:27:57;94919.81;;;24.52;40.71
43217;BME280;60511;42.686;23.300;2022-09-09T05:29:59;94917.81;;;24.33;40.92
43217;BME280;60511;42.686;23.300;2022-09-09T05:31:59;94928.41;;;24.22;41.07
43217;BME280;60511;42.686;23.300;2022-09-09T05:34:00;94924.06;;;24.01;41.72
43217;BME280;60511;42.686;23.300;2022-09-09T05:36:05;94922.94;;;23.58;43.11
43217;BME280;60511;42.686;23.300;2022-09-09T05:38:06;94919.06;;;23.43;43.26
43217;BME280;60511;42.686;23.300;2022-09-09T05:40:06;94928.59;;;23.25;43.72
43217;BME280;60511;42.686;23.300;2022-09-09T05:42:07;94925.44;;;22.95;44.10
43217;BME280;60511;42.686;23.300;2022-09-09T05:44:07;94931.44;;;22.63;44.89
43217;BME280;60511;42.686;23.300;2022-09-09T05:46:09;94924.38;;;22.46;45.35
43217;BME280;60511;42.686;23.300;2022-09-09T05:48:10;94929.06;;;22.74;44.62
43217;BME280;60511;42.686;23.300;2022-09-09T05:50:10;94940.91;;;22.45;45.29
43217;BME280;60511;42.686;23.300;2022-09-09T05:52:10;94937.63;;;22.27;45.76
43217;BME280;60511;42.686;23.300;2022-09-09T05:54:11;94930.91;;;22.98;44.34
43217;BME280;60511;42.686;23.300;2022-09-09T05:56:15;94934.72;;;22.44;45.00
43217;BME280;60511;42.686;23.300;2022-09-09T05:58:17;94939.91;;;22.37;45.44
43217;BME280;60511;42.686;23.300;2022-09-09T06:00:18;94932.88;;;22.73;44.59
43217;BME280;60511;42.686;23.300;2022-09-09T06:02:19;94930.41;;;22.80;44.34
43217;BME280;60511;42.686;23.300;2022-09-09T06:04:20;94940.06;;;22.81;44.02
43217;BME280;60511;42.686;23.300;2022-09-09T06:06:25;94940.44;;;23.20;43.43
43217;BME280;60511;42.686;23.300;2022-09-09T06:08:26;94951.28;;;23.08;43.50
43217;BME280;60511;42.686;23.300;2022-09-09T06:10:26;94945.38;;;23.18;43.26
43217;BME280;60511;42.686;23.300;2022-09-09T06:12:26;94940.97;;;22.85;43.88
43217;BME280;60511;42.686;23.300;2022-09-09T06:14:27;94936.25;;;22.82;44.06
43217;BME280;60511;42.686;23.300;2022-09-09T06:16:27;94929.69;;;22.96;43.64
43217;BME280;60511;42.686;23.300;2022-09-09T06:18:28;94945.88;;;22.96;43.81
43217;BME280;60511;42.686;23.300;2022-09-09T06:20:29;94948.41;;;23.17;43.56
43217;BME280;60511;42.686;23.300;2022-09-09T06:22:30;94946.03;;;22.87;43.85
43217;BME280;60511;42.686;23.300;2022-09-09T06:24:30;94943.28;;;22.99;43.79
43217;BME280;60511;42.686;23.300;2022-09-09T06:26:33;94949.75;;;23.23;43.34
43217;BME280;60511;42.686;23.300;2022-09-09T06:28:34;94946.75;;;23.12;43.54
43217;BME280;60511;42.686;23.300;2022-09-09T06:30:34;94941.88;;;22.77;44.11
43217;BME280;60511;42.686;23.300;2022-09-09T06:32:36;94948.97;;;23.22;43.03
43217;BME280;60511;42.686;23.300;2022-09-09T06:34:37;94944.56;;;23.30;42.64
43217;BME280;60511;42.686;23.300;2022-09-09T06:36:38;94934.53;;;23.31;42.85
43217;BME280;60511;42.686;23.300;2022-09-09T06:38:38;94935.66;;;23.01;43.47
43217;BME280;60511;42.686;23.300;2022-09-09T06:40:39;94927.78;;;22.84;43.63
43217;BME280;60511;42.686;23.300;2022-09-09T06:42:39;94930.38;;;22.93;43.67
43217;BME280;60511;42.686;23.300;2022-09-09T06:44:40;94923.34;;;22.51;44.58
43217;BME280;60511;42.686;23.300;2022-09-09T06:46:40;94932.41;;;22.83;43.81
43217;BME280;60511;42.686;23.300;2022-09-09T06:48:41;94930.38;;;22.93;43.61
43217;BME280;60511;42.686;23.300;2022-09-09T06:50:41;94932.50;;;22.99;43.33
43217;BME280;60511;42.686;23.300;2022-09-09T06:52:45;94941.03;;;23.14;42.91
43217;BME280;60511;42.686;23.300;2022-09-09T06:54:46;94944.22;;;22.91;43.32
43217;BME280;60511;42.686;23.300;2022-09-09T06:56:46;94948.59;;;22.83;43.58
43217;BME280;60511;42.686;23.300;2022-09-09T06:58:47;94944.53;;;22.90;43.21
43217;BME280;60511;42.686;23.300;2022-09-09T07:00:48;94950.75;;;22.65;43.62
43217;BME280;60511;42.686;23.300;2022-09-09T07:02:50;94949.06;;;22.85;43.25
43217;BME280;60511;42.686;23.300;2022-09-09T07:04:50;94948.19;;;22.69;43.27
43217;BME280;60511;42.686;23.300;2022-09-09T07:06:51;94950.56;;;22.58;43.60
43217;BME280;60511;42.686;23.300;2022-09-09T07:08:53;94945.50;;;22.57;43.56
43217;BME280;60511;42.686;23.300;2022-09-09T07:10:53;94943.94;;;22.56;43.55
43217;BME280;60511;42.686;23.300;2022-09-09T07:12:54;94943.19;;;22.96;42.71
43217;BME280;60511;42.686;23.300;2022-09-09T07:14:54;94936.31;;;23.39;41.87
43217;BME280;60511;42.686;23.300;2022-09-09T07:16:55;94935.31;;;23.31;41.85
43217;BME280;60511;42.686;23.300;2022-09-09T07:18:55;94939.25;;;23.34;41.76
43217;BME280;60511;42.686;23.300;2022-09-09T07:20:57;94939.09;;;23.42;41.93
43217;BME280;60511;42.686;23.300;2022-09-09T07:22:58;94935.63;;;23.42;41.80
43217;BME280;60511;42.686;23.300;2022-09-09T07:24:59;94934.09;;;23.57;41.50
43217;BME280;60511;42.686;23.300;2022-09-09T07:26:59;94938.31;;;23.70;41.20
43217;BME280;60511;42.686;23.300;2022-09-09T07:28:59;94935.56;;;23.82;41.09
43217;BME280;60511;42.686;23.300;2022-09-09T07:31:00;94930.50;;;23.97;40.54
43217;BME280;60511;42.686;23.300;2022-09-09T07:33:02;94931.09;;;23.90;40.53
43217;BME280;60511;42.686;23.300;2022-09-09T07:35:03;94926.06;;;23.60;40.95
43217;BME280;60511;42.686;23.300;2022-09-09T07:37:03;94928.19;;;23.39;41.30
43217;BME280;60511;42.686;23.300;2022-09-09T07:39:05;94923.00;;;23.62;40.92
43217;BME280;60511;42.686;23.300;2022-09-09T07:41:06;94927.72;;;23.65;41.01
43217;BME280;60511;42.686;23.300;2022-09-09T07:43:09;94932.91;;;23.70;40.71
43217;BME280;60511;42.686;23.300;2022-09-09T07:45:09;94933.63;;;23.83;40.67
43217;BME280;60511;42.686;23.300;2022-09-09T07:47:09;94940.72;;;24.03;40.20
43217;BME280;60511;42.686;23.300;2022-09-09T07:49:10;94932.94;;;24.18;40.00
43217;BME280;60511;42.686;23.300;2022-09-09T07:51:14;94936.22;;;24.27;39.79
43217;BME280;60511;42.686;23.300;2022-09-09T07:53:18;94933.38;;;24.36;39.86
43217;BME280;60511;42.686;23.300;2022-09-09T07:55:20;94942.50;;;24.47;39.59
43217;BME280;60511;42.686;23.300;2022-09-09T07:57:20;94937.78;;;24.60;39.16
43217;BME280;60511;42.686;23.300;2022-09-09T07:59:21;94929.25;;;24.58;39.21
43217;BME280;60511;42.686;23.300;2022-09-09T08:01:32;94932.81;;;24.62;39.42
43217;BME280;60511;42.686;23.300;2022-09-09T08:03:32;94929.44;;;24.84;38.85
43217;BME280;60511;42.686;23.300;2022-09-09T08:05:33;94926.94;;;24.76;38.75
43217;BME280;60511;42.686;23.300;2022-09-09T08:07:34;94931.56;;;24.75;39.10
43217;BME280;60511;42.686;23.300;2022-09-09T08:09:34;94929.72;;;24.79;38.88
43217;BME280;60511;42.686;23.300;2022-09-09T08:11:34;94933.06;;;24.73;38.89
43217;BME280;60511;42.686;23.300;2022-09-09T08:13:36;94922.50;;;24.67;39.30
43217;BME280;60511;42.686;23.300;2022-09-09T08:15:36;94923.53;;;24.79;39.04
43217;BME280;60511;42.686;23.300;2022-09-09T08:17:36;94930.16;;;24.81;38.71
43217;BME280;60511;42.686;23.300;2022-09-09T08:19:38;94923.59;;;24.82;38.72
43217;BME280;60511;42.686;23.300;2022-09-09T08:21:39;94928.72;;;24.88;38.52
43217;BME280;60511;42.686;23.300;2022-09-09T08:23:40;94928.44;;;24.93;38.59
43217;BME280;60511;42.686;23.300;2022-09-09T08:25:41;94927.31;;;24.94;38.42
43217;BME280;60511;42.686;23.300;2022-09-09T08:27:41;94924.69;;;24.97;38.79
43217;BME280;60511;42.686;23.300;2022-09-09T08:29:41;94923.28;;;25.03;38.48
43217;BME280;60511;42.686;23.300;2022-09-09T08:31:43;94920.25;;;25.09;38.26
43217;BME280;60511;42.686;23.300;2022-09-09T08:33:44;94914.06;;;25.08;38.33
43217;BME280;60511;42.686;23.300;2022-09-09T08:35:50;94916.50;;;25.13;38.37
43217;BME280;60511;42.686;23.300;2022-09-09T08:37:53;94920.41;;;25.16;38.30
43217;BME280;60511;42.686;23.300;2022-09-09T08:39:53;94923.47;;;25.14;38.61
43217;BME280;60511;42.686;23.300;2022-09-09T08:42:00;94926.25;;;25.18;38.46
43217;BME280;60511;42.686;23.300;2022-09-09T08:44:29;94916.63;;;25.20;38.47
43217;BME280;60511;42.686;23.300;2022-09-09T08:50:34;94918.94;;;25.38;38.02
43217;BME280;60511;42.686;23.300;2022-09-09T08:55:11;94919.91;;;25.49;37.48
43217;BME280;60511;42.686;23.300;2022-09-09T08:57:16;94916.53;;;25.56;37.38
43217;BME280;60511;42.686;23.300;2022-09-09T08:59:18;94916.19;;;25.57;37.72
43217;BME280;60511;42.686;23.300;2022-09-09T09:06:04;94911.69;;;25.65;37.69
43217;BME280;60511;42.686;23.300;2022-09-09T09:11:07;94920.25;;;25.67;37.51
43217;BME280;60511;42.686;23.300;2022-09-09T09:12:49;94917.63;;;25.71;37.38
43217;BME280;60511;42.686;23.300;2022-09-09T09:14:50;94914.88;;;25.90;36.92
43217;BME280;60511;42.686;23.300;2022-09-09T09:16:52;94913.00;;;25.94;37.00
43217;BME280;60511;42.686;23.300;2022-09-09T09:18:53;94908.16;;;25.84;37.18
43217;BME280;60511;42.686;23.300;2022-09-09T09:22:58;94920.00;;;25.76;37.38
43217;BME280;60511;42.686;23.300;2022-09-09T09:27:07;94908.47;;;26.02;36.45
43217;BME280;60511;42.686;23.300;2022-09-09T09:29:11;94907.56;;;25.94;36.87
43217;BME280;60511;42.686;23.300;2022-09-09T09:31:14;94914.09;;;25.90;37.16
43217;BME280;60511;42.686;23.300;2022-09-09T09:33:25;94913.34;;;25.93;37.07
43217;BME280;60511;42.686;23.300;2022-09-09T09:35:27;94902.06;;;25.91;36.99
43217;BME280;60511;42.686;23.300;2022-09-09T09:37:29;94906.38;;;25.92;37.11
43217;BME280;60511;42.686;23.300;2022-09-09T09:39:31;94899.06;;;25.96;36.84
43217;BME280;60511;42.686;23.300;2022-09-09T09:41:40;94894.50;;;26.00;36.86
43217;BME280;60511;42.686;23.300;2022-09-09T09:43:41;94889.75;;;25.93;36.82
43217;BME280;60511;42.686;23.300;2022-09-09T09:45:44;94892.06;;;25.95;37.08
43217;BME280;60511;42.686;23.300;2022-09-09T09:47:45;94890.94;;;25.96;37.11
43217;BME280;60511;42.686;23.300;2022-09-09T09:51:52;94893.94;;;25.91;37.18
43217;BME280;60511;42.686;23.300;2022-09-09T09:53:53;94888.53;;;25.91;37.03
43217;BME280;60511;42.686;23.300;2022-09-09T09:56:00;94879.25;;;25.92;36.96
43217;BME280;60511;42.686;23.300;2022-09-09T09:58:02;94885.03;;;25.90;36.98
43217;BME280;60511;42.686;23.300;2022-09-09T10:00:24;94876.59;;;25.95;37.11
43217;BME280;60511;42.686;23.300;2022-09-09T10:02:24;94881.22;;;25.95;37.11
43217;BME280;60511;42.686;23.300;2022-09-09T10:04:26;94882.38;;;25.94;37.20
43217;BME280;60511;42.686;23.300;2022-09-09T10:06:33;94885.09;;;25.94;37.31
43217;BME280;60511;42.686;23.300;2022-09-09T10:08:34;94887.88;;;25.97;37.07
43217;BME280;60511;42.686;23.300;2022-09-09T10:13:06;94890.63;;;26.01;37.35
43217;BME280;60511;42.686;23.300;2022-09-09T10:17:40;94887.91;;;26.01;37.12
43217;BME280;60511;42.686;23.300;2022-09-09T10:19:48;94891.03;;;26.03;37.17
43217;BME280;60511;42.686;23.300;2022-09-09T10:26:35;94899.72;;;26.12;37.14
43217;BME280;60511;42.686;23.300;2022-09-09T10:30:55;94893.41;;;26.04;37.38
43217;BME280;60511;42.686;23.300;2022-09-09T10:33:13;94891.53;;;26.09;37.66
43217;BME280;60511;42.686;23.300;2022-09-09T10:35:50;94893.41;;;26.28;37.31
43217;BME280;60511;42.686;23.300;2022-09-09T10:42:14;94910.25;;;26.17;37.42
43217;BME280;60511;42.686;23.300;2022-09-09T10:44:23;94908.94;;;26.31;37.40
43217;BME280;60511;42.686;23.300;2022-09-09T10:57:33;94909.56;;;26.20;37.82
43217;BME280;60511;42.686;23.300;2022-09-09T10:59:33;94902.72;;;26.30;37.83
43217;BME280;60511;42.686;23.300;2022-09-09T11:03:44;94906.78;;;25.94;38.37
43217;BME280;60511;42.686;23.300;2022-09-09T11:05:51;94897.31;;;26.07;38.41
43217;BME280;60511;42.686;23.300;2022-09-09T11:07:58;94906.09;;;26.23;38.39
43217;BME280;60511;42.686;23.300;2022-09-09T11:10:02;94900.94;;;25.92;38.59
43217;BME280;60511;42.686;23.300;2022-09-09T11:12:06;94903.91;;;25.86;38.74
43217;BME280;60511;42.686;23.300;2022-09-09T11:18:43;94888.13;;;26.15;38.78
43217;BME280;60511;42.686;23.300;2022-09-09T11:20:45;94892.16;;;26.25;38.68
43217;BME280;60511;42.686;23.300;2022-09-09T11:24:50;94886.75;;;26.25;39.22
43217;BME280;60511;42.686;23.300;2022-09-09T11:26:54;94881.47;;;26.09;39.72
43217;BME280;60511;42.686;23.300;2022-09-09T11:31:34;94873.94;;;25.99;40.42
43217;BME280;60511;42.686;23.300;2022-09-09T11:42:18;94836.09;;;25.83;41.22
43217;BME280;60511;42.686;23.300;2022-09-09T11:44:24;94839.47;;;25.99;41.00
43217;BME280;60511;42.686;23.300;2022-09-09T11:46:34;94826.06;;;26.10;40.90
43217;BME280;60511;42.686;23.300;2022-09-09T11:48:39;94809.72;;;26.33;40.15
43217;BME280;60511;42.686;23.300;2022-09-09T11:50:43;94803.00;;;26.50;40.18
43217;BME280;60511;42.686;23.300;2022-09-09T11:52:44;94794.00;;;26.46;40.23
43217;BME280;60511;42.686;23.300;2022-09-09T11:54:48;94804.63;;;26.28;40.72
43217;BME280;60511;42.686;23.300;2022-09-09T11:56:49;94794.91;;;26.00;41.32
43217;BME280;60511;42.686;23.300;2022-09-09T11:58:56;94815.38;;;26.21;40.66
43217;BME280;60511;42.686;23.300;2022-09-09T12:00:58;94808.94;;;26.33;40.51
43217;BME280;60511;42.686;23.300;2022-09-09T12:02:58;94806.78;;;26.45;40.98
43217;BME280;60511;42.686;23.300;2022-09-09T12:05:09;94807.72;;;26.57;40.49
43217;BME280;60511;42.686;23.300;2022-09-09T12:11:31;94793.41;;;26.60;41.03
43217;BME280;60511;42.686;23.300;2022-09-09T12:13:31;94790.47;;;26.72;40.76
43217;BME280;60511;42.686;23.300;2022-09-09T12:15:32;94787.72;;;26.69;40.80
43217;BME280;60511;42.686;23.300;2022-09-09T12:17:37;94785.78;;;26.69;40.64
43217;BME280;60511;42.686;23.300;2022-09-09T12:19:41;94784.34;;;26.79;40.39
43217;BME280;60511;42.686;23.300;2022-09-09T12:30:34;94775.63;;;26.96;40.26
43217;BME280;60511;42.686;23.300;2022-09-09T12:32:37;94774.06;;;26.95;39.88
43217;BME280;60511;42.686;23.300;2022-09-09T12:34:53;94777.75;;;26.80;40.13
43217;BME280;60511;42.686;23.300;2022-09-09T12:36:56;94766.44;;;26.74;40.19
43217;BME280;60511;42.686;23.300;2022-09-09T12:38:59;94764.28;;;26.87;39.96
43217;BME280;60511;42.686;23.300;2022-09-09T12:41:24;94767.25;;;26.78;39.82
43217;BME280;60511;42.686;23.300;2022-09-09T12:43:25;94773.41;;;26.72;39.95
43217;BME280;60511;42.686;23.300;2022-09-09T12:45:27;94780.44;;;26.76;39.64
43217;BME280;60511;42.686;23.300;2022-09-09T12:49:36;94777.31;;;26.74;39.50
43217;BME280;60511;42.686;23.300;2022-09-09T12:51:38;94769.50;;;26.69;39.46